Pirtle, Texas
Current Conditions -  °F | °C
As of 1:55 PM on Thursday 30 Oct 2014 (Local Time) from KRFI Reporting Station
Clear Clear  
Wind Chill: 23°   Ceiling: Unl
Heat Index: 23°   Visibility: 10mi
Dew Point:   Wind: 3mph
Humidity: 32%   Direction: 90°E
Pressure: 30.13"   Gusts: NA
Location:  32.2818°N, 94.951°W
Report Text: KRFI 301855Z AUTO 09003KT 10SM CLR 23/05 A3013 RMK AO2 T02250052
Loading
Personal Weather Stations






























Interactive Weather Map
Tropical Storm Tracking
New forecast layout! Learn more

10-Day Weather Forecast

Advertisements
Track Severe Weather on mobile